Time;durP1;ratioP1;P1;durP2;ratioP2;P2;SDS_P1;SDS_P2;PMS_P1;PMS_P2;Temp;Humidity;BMP_temperature;BMP_pressure;BME280_temperature;BME280_humidity;BME280_pressure;Samples;Min_cycle;Max_cycle;Signal;HPM_P1;HPM_P2
2020/12/30 00:00:48;;;;;;;4.25;1.40;;;6.30;80.90;;;;;;5036366;28;20549;-71
2020/12/30 00:03:14;;;;;;;3.63;1.15;;;6.40;80.80;;;;;;5036360;28;20083;-71
2020/12/30 00:05:40;;;;;;;3.95;1.00;;;6.30;80.80;;;;;;5036301;28;20436;-71
2020/12/30 00:08:06;;;;;;;2.95;0.98;;;6.20;80.70;;;;;;5036407;28;20052;-71
2020/12/30 00:10:32;;;;;;;6.97;1.17;;;6.20;80.80;;;;;;5036111;28;20037;-71
2020/12/30 00:12:58;;;;;;;4.32;1.13;;;6.20;80.90;;;;;;5036029;28;20532;-71
2020/12/30 00:15:24;;;;;;;4.93;1.23;;;6.40;81.40;;;;;;5036138;28;20037;-71
2020/12/30 00:17:49;;;;;;;4.57;1.30;;;6.40;81.50;;;;;;5036381;28;20087;-71
2020/12/30 00:20:20;;;;;;;4.43;0.95;;;6.30;81.40;;;;;;5036213;28;20037;-71
2020/12/30 00:22:46;;;;;;;3.40;1.10;;;6.40;81.20;;;;;;5036210;28;20064;-71
2020/12/30 00:25:13;;;;;;;1.75;0.93;;;6.30;81.20;;;;;;5035863;28;20489;-71
2020/12/30 00:27:40;;;;;;;5.28;1.10;;;6.70;81.40;;;;;;5035479;28;20060;-71
2020/12/30 00:30:11;;;;;;;2.05;0.80;;;6.40;81.10;;;;;;5036326;28;20037;-71
2020/12/30 00:32:37;;;;;;;5.18;0.85;;;6.30;81.70;;;;;;5036374;28;20041;-71
2020/12/30 00:35:04;;;;;;;3.10;1.13;;;6.20;81.20;;;;;;5036118;28;20100;-71
2020/12/30 00:37:30;;;;;;;5.07;1.05;;;6.30;81.30;;;;;;5036194;28;20053;-71
2020/12/30 00:39:56;;;;;;;4.28;0.80;;;6.30;81.30;;;;;;5036196;28;20037;-71
2020/12/30 00:42:22;;;;;;;3.72;0.82;;;6.20;81.40;;;;;;5035780;28;20064;-71
2020/12/30 00:44:48;;;;;;;3.97;0.90;;;6.30;82.00;;;;;;5035691;28;20481;-71
2020/12/30 00:47:15;;;;;;;4.97;1.00;;;6.50;81.60;;;;;;5036081;28;20292;-71
2020/12/30 00:49:41;;;;;;;5.32;1.10;;;6.40;81.70;;;;;;5035623;28;20047;-71
2020/12/30 00:52:08;;;;;;;3.70;0.82;;;6.40;81.60;;;;;;5035826;28;20148;-71
2020/12/30 00:54:35;;;;;;;4.40;0.80;;;6.50;81.50;;;;;;5035721;28;20037;-71
2020/12/30 00:57:01;;;;;;;1.67;0.55;;;6.50;81.60;;;;;;5065196;28;20052;-71
2020/12/30 00:59:26;;;;;;;2.30;0.68;;;6.40;81.50;;;;;;5074833;28;20047;-71
2020/12/30 01:01:53;;;;;;;3.78;1.00;;;6.30;81.60;;;;;;5074641;28;20048;-71
2020/12/30 01:04:20;;;;;;;3.25;0.50;;;6.30;81.50;;;;;;5075508;28;20071;-71
2020/12/30 01:06:54;;;;;;;1.95;0.60;;;6.20;81.50;;;;;;5075354;28;20040;-71
2020/12/30 01:09:22;;;;;;;4.18;0.85;;;6.30;81.70;;;;;;5074342;28;20036;-71
2020/12/30 01:11:47;;;;;;;2.22;0.50;;;6.50;82.00;;;;;;5075324;28;20679;-71
2020/12/30 01:14:14;;;;;;;2.03;0.73;;;6.40;82.00;;;;;;5074888;28;20137;-71
2020/12/30 01:16:40;;;;;;;4.13;0.77;;;6.20;81.90;;;;;;5073481;28;20119;-71
2020/12/30 01:19:06;;;;;;;3.67;0.70;;;6.00;81.80;;;;;;5073307;28;20193;-71
2020/12/30 01:21:42;;;;;;;3.75;1.10;;;6.20;81.80;;;;;;5062508;28;20095;-71
2020/12/30 01:24:08;;;;;;;3.58;1.00;;;6.00;81.50;;;;;;5054959;28;20064;-71
2020/12/30 01:26:34;;;;;;;5.20;1.10;;;6.00;81.30;;;;;;5054905;28;20099;-71
2020/12/30 01:29:00;;;;;;;3.80;0.75;;;6.30;81.10;;;;;;5054372;28;20045;-71
2020/12/30 01:31:27;;;;;;;3.20;0.95;;;6.10;80.90;;;;;;5053289;28;20048;-71
2020/12/30 01:33:53;;;;;;;3.00;1.30;;;6.00;81.10;;;;;;5054642;28;20059;-71
2020/12/30 01:36:19;;;;;;;4.20;1.23;;;6.10;81.70;;;;;;5054729;28;20041;-70
2020/12/30 01:38:45;;;;;;;3.83;1.17;;;6.10;81.60;;;;;;5054239;28;20754;-71
2020/12/30 01:41:11;;;;;;;5.18;1.40;;;6.10;81.40;;;;;;5052265;28;20040;-71
2020/12/30 01:43:37;;;;;;;1.95;1.13;;;6.20;81.20;;;;;;5052402;28;20617;-71
2020/12/30 01:46:03;;;;;;;4.70;1.60;;;6.10;81.20;;;;;;5052732;28;20103;-71
2020/12/30 01:48:29;;;;;;;5.65;1.70;;;5.90;81.10;;;;;;5057824;28;20048;-71
2020/12/30 01:50:55;;;;;;;4.40;1.58;;;5.80;80.90;;;;;;5066798;28;20032;-71
2020/12/30 01:53:21;;;;;;;3.97;1.60;;;5.90;81.00;;;;;;5054221;28;20045;-70
2020/12/30 01:55:51;;;;;;;3.45;1.65;;;6.00;81.00;;;;;;5054195;28;20041;-71
2020/12/30 01:58:17;;;;;;;4.45;1.38;;;6.00;81.00;;;;;;5053589;28;20068;-71
2020/12/30 02:00:48;;;;;;;6.95;1.80;;;6.00;81.00;;;;;;5054156;28;20061;-71
2020/12/30 02:03:15;;;;;;;3.70;1.30;;;5.70;80.70;;;;;;5058375;28;20048;-71
2020/12/30 02:05:42;;;;;;;7.05;1.70;;;5.70;80.90;;;;;;5073958;28;20036;-71
2020/12/30 02:08:09;;;;;;;5.53;1.92;;;5.90;81.10;;;;;;5074052;28;20036;-71
2020/12/30 02:10:35;;;;;;;6.75;1.90;;;5.70;81.40;;;;;;5074057;28;20478;-70
2020/12/30 02:13:00;;;;;;;4.20;1.50;;;5.60;80.70;;;;;;5070919;28;20067;-71
2020/12/30 02:15:32;;;;;;;3.65;1.60;;;5.50;80.60;;;;;;5053586;28;20136;-71
2020/12/30 02:17:59;;;;;;;6.75;1.92;;;5.60;80.50;;;;;;5053642;28;20051;-71
2020/12/30 02:20:26;;;;;;;4.43;2.38;;;5.60;80.60;;;;;;5053851;28;20040;-71
2020/12/30 02:23:07;;;;;;;4.97;2.05;;;5.40;80.60;;;;;;5053836;28;20037;-71
2020/12/30 02:25:33;;;;;;;4.32;2.28;;;5.20;80.60;;;;;;5054165;28;20037;-71
2020/12/30 02:27:58;;;;;;;6.35;2.45;;;5.40;80.70;;;;;;5053400;28;20155;-71
2020/12/30 02:30:24;;;;;;;9.55;2.65;;;5.40;80.60;;;;;;5053755;28;20611;-71
2020/12/30 02:32:50;;;;;;;6.10;2.60;;;5.00;80.20;;;;;;5053771;28;20048;-71
2020/12/30 02:35:22;;;;;;;7.28;2.53;;;5.20;80.20;;;;;;5057924;28;20033;-71
2020/12/30 02:37:48;;;;;;;6.55;2.30;;;5.60;80.10;;;;;;5053689;28;20040;-71
2020/12/30 02:40:14;;;;;;;5.53;2.38;;;5.10;79.60;;;;;;5053842;28;20036;-70
2020/12/30 02:42:39;;;;;;;7.13;2.13;;;5.40;80.20;;;;;;5053887;28;20349;-71
2020/12/30 02:45:07;;;;;;;5.07;2.28;;;5.00;79.70;;;;;;5054083;28;20040;-71
2020/12/30 02:47:34;;;;;;;6.95;2.33;;;5.30;79.80;;;;;;5073713;28;20048;-70
2020/12/30 02:50:01;;;;;;;5.90;2.10;;;5.20;80.00;;;;;;5074010;28;20044;-70
2020/12/30 02:52:27;;;;;;;6.25;2.25;;;5.20;80.20;;;;;;5072909;28;20435;-71
2020/12/30 02:54:53;;;;;;;5.53;2.45;;;5.20;80.20;;;;;;5073103;28;20032;-70
2020/12/30 02:57:20;;;;;;;7.10;2.40;;;5.20;80.10;;;;;;5073312;28;20079;-70
2020/12/30 02:59:46;;;;;;;4.63;1.95;;;5.40;80.10;;;;;;5073538;28;20060;-70
2020/12/30 03:02:12;;;;;;;4.65;2.10;;;5.10;79.80;;;;;;5073602;28;20123;-70
2020/12/30 03:04:38;;;;;;;4.22;2.13;;;5.10;79.90;;;;;;5073496;28;20044;-71
2020/12/30 03:07:04;;;;;;;7.30;2.58;;;5.00;80.10;;;;;;5073753;28;20049;-70
2020/12/30 03:09:30;;;;;;;6.65;2.42;;;5.20;80.50;;;;;;5073626;28;20434;-70
2020/12/30 03:11:56;;;;;;;5.75;2.55;;;5.20;80.60;;;;;;5073263;28;20036;-71
2020/12/30 03:14:22;;;;;;;5.80;2.17;;;5.40;80.60;;;;;;5073497;28;20032;-71
2020/12/30 03:16:49;;;;;;;6.07;2.30;;;5.50;80.50;;;;;;5073607;28;20132;-71
2020/12/30 03:19:14;;;;;;;9.15;2.47;;;5.30;80.20;;;;;;5073358;28;20040;-70
2020/12/30 03:21:40;;;;;;;5.40;2.50;;;5.40;80.40;;;;;;5073675;28;20488;-71
2020/12/30 03:24:06;;;;;;;4.65;2.63;;;4.90;80.00;;;;;;5073513;28;20040;-71
2020/12/30 03:26:34;;;;;;;9.65;2.60;;;5.30;80.00;;;;;;5072942;28;20040;-71
2020/12/30 03:29:03;;;;;;;6.88;2.88;;;5.30;79.90;;;;;;5072953;28;20052;-71
2020/12/30 03:31:30;;;;;;;10.43;4.18;;;4.80;79.50;;;;;;5072897;28;20119;-71
2020/12/30 03:33:57;;;;;;;8.70;4.15;;;5.20;79.80;;;;;;5072973;28;20047;-71
2020/12/30 03:36:23;;;;;;;7.82;3.28;;;4.80;79.70;;;;;;5072889;28;20044;-71
2020/12/30 03:38:49;;;;;;;9.90;2.78;;;5.00;79.70;;;;;;5072827;28;20041;-71
2020/12/30 03:41:16;;;;;;;7.50;2.75;;;5.10;80.10;;;;;;5072855;28;20044;-71
2020/12/30 03:43:42;;;;;;;9.77;2.35;;;4.90;80.10;;;;;;5072523;28;20043;-71
2020/12/30 03:46:08;;;;;;;7.10;2.10;;;5.10;80.30;;;;;;5072552;28;20041;-71
2020/12/30 03:48:34;;;;;;;8.13;2.13;;;5.10;80.40;;;;;;5072665;28;20434;-71
2020/12/30 03:51:00;;;;;;;7.50;1.90;;;5.20;80.50;;;;;;5071332;28;20050;-71
2020/12/30 03:53:26;;;;;;;8.73;2.03;;;5.00;80.60;;;;;;5072953;28;20407;-71
2020/12/30 03:55:53;;;;;;;5.45;1.38;;;5.10;80.90;;;;;;5072665;28;20036;-71
2020/12/30 03:58:19;;;;;;;6.07;1.95;;;5.20;81.30;;;;;;5072561;28;20032;-71
2020/12/30 04:00:45;;;;;;;8.65;1.77;;;5.20;81.40;;;;;;5071379;28;20516;-71
2020/12/30 04:03:11;;;;;;;7.28;1.30;;;5.10;81.20;;;;;;5052380;28;20056;-71
2020/12/30 04:05:36;;;;;;;7.95;1.77;;;5.20;81.10;;;;;;5055384;28;20037;-71
2020/12/30 04:08:02;;;;;;;7.82;1.45;;;5.00;80.90;;;;;;5056008;28;20052;-71
2020/12/30 04:10:28;;;;;;;9.02;1.05;;;5.20;81.10;;;;;;5065560;28;20037;-71
2020/12/30 04:12:54;;;;;;;5.53;1.25;;;5.20;80.90;;;;;;5076031;28;20032;-71
2020/12/30 04:15:20;;;;;;;6.30;1.30;;;5.40;80.80;;;;;;5076036;28;20029;-71
2020/12/30 04:17:46;;;;;;;4.72;0.90;;;5.10;80.60;;;;;;5076152;28;20373;-71
2020/12/30 04:20:11;;;;;;;5.40;1.10;;;5.20;80.60;;;;;;5075885;28;20036;-71
2020/12/30 04:22:37;;;;;;;5.78;1.13;;;5.10;80.30;;;;;;5075870;28;20067;-71
2020/12/30 04:25:04;;;;;;;3.13;0.88;;;5.00;80.10;;;;;;5076303;28;20040;-71
2020/12/30 04:27:29;;;;;;;2.72;0.90;;;5.10;80.20;;;;;;5075902;28;20037;-70
2020/12/30 04:29:55;;;;;;;10.13;1.23;;;5.10;80.00;;;;;;5075864;28;20064;-71
2020/12/30 04:32:21;;;;;;;6.65;0.80;;;5.00;79.80;;;;;;5076081;28;20063;-71
2020/12/30 04:34:47;;;;;;;5.80;0.80;;;5.20;80.00;;;;;;5075553;28;20418;-71
2020/12/30 04:37:13;;;;;;;4.70;0.88;;;5.00;79.80;;;;;;5072360;28;20045;-71
2020/12/30 04:39:40;;;;;;;5.60;0.98;;;5.10;80.00;;;;;;5056014;28;20043;-71
2020/12/30 04:42:08;;;;;;;5.72;1.00;;;4.80;79.60;;;;;;5055436;28;20051;-71
2020/12/30 04:44:39;;;;;;;4.43;1.00;;;5.00;79.60;;;;;;5055799;28;20060;-71
2020/12/30 04:47:06;;;;;;;5.07;0.80;;;4.80;79.50;;;;;;5055641;28;20041;-71
2020/12/30 04:49:32;;;;;;;4.57;0.80;;;4.80;79.50;;;;;;5055506;28;20591;-71
2020/12/30 04:51:58;;;;;;;9.77;1.17;;;4.90;79.50;;;;;;5055505;28;20080;-71
2020/12/30 04:54:24;;;;;;;6.07;0.65;;;4.80;79.60;;;;;;5055060;28;20044;-71
2020/12/30 04:57:03;;;;;;;4.93;0.82;;;4.90;79.60;;;;;;5055275;28;20037;-71
2020/12/30 04:59:42;;;;;;;5.85;0.80;;;4.90;79.50;;;;;;5055309;28;20098;-71
2020/12/30 05:02:09;;;;;;;3.83;0.75;;;4.50;79.20;;;;;;5055317;28;20047;-71
2020/12/30 05:04:40;;;;;;;3.90;0.70;;;5.00;79.80;;;;;;5055080;28;20095;-71
2020/12/30 05:07:08;;;;;;;2.95;0.55;;;4.80;79.10;;;;;;5054987;28;20072;-71
2020/12/30 05:09:36;;;;;;;8.23;0.98;;;4.70;79.10;;;;;;5054892;28;20479;-71
2020/12/30 05:12:10;;;;;;;3.88;0.88;;;4.60;79.00;;;;;;5055461;28;20048;-71
2020/12/30 05:14:37;;;;;;;3.45;0.65;;;4.80;79.20;;;;;;5054838;28;20033;-71
2020/12/30 05:17:07;;;;;;;6.72;0.85;;;4.70;79.30;;;;;;5054348;28;20120;-71
2020/12/30 05:19:33;;;;;;;4.40;0.90;;;4.70;79.30;;;;;;5067153;28;20064;-71
2020/12/30 05:21:59;;;;;;;5.60;1.02;;;4.80;79.40;;;;;;5055181;28;20109;-71
2020/12/30 05:24:27;;;;;;;5.22;1.40;;;4.50;79.30;;;;;;5055012;28;20551;-71
2020/12/30 05:26:53;;;;;;;11.07;3.53;;;4.80;79.30;;;;;;5054533;28;20665;-71
2020/12/30 05:29:20;;;;;;;11.50;4.18;;;4.60;79.10;;;;;;5059811;28;20045;-71
2020/12/30 05:31:56;;;;;;;7.93;1.83;;;4.80;79.60;;;;;;5059525;28;20063;-71
2020/12/30 05:34:23;;;;;;;10.40;2.60;;;5.20;79.70;;;;;;5055487;28;20048;-71
2020/12/30 05:36:52;;;;;;;6.40;2.17;;;4.90;79.60;;;;;;5054766;28;20037;-71
2020/12/30 05:39:22;;;;;;;10.68;3.08;;;4.70;79.70;;;;;;5054917;28;20033;-71
2020/12/30 05:41:48;;;;;;;13.65;4.60;;;4.70;79.60;;;;;;5048413;28;20132;-71
2020/12/30 05:44:19;;;;;;;9.70;3.30;;;4.80;79.60;;;;;;5039345;28;20400;-71
2020/12/30 05:46:45;;;;;;;8.82;3.17;;;4.80;79.50;;;;;;5034661;28;20132;-71
2020/12/30 05:49:33;;;;;;;8.20;2.90;;;4.80;80.00;;;;;;5034673;28;20049;-71
2020/12/30 05:52:09;;;;;;;8.27;2.05;;;4.70;79.30;;;;;;5034917;28;20087;-71
2020/12/30 05:54:35;;;;;;;3.60;1.00;;;4.80;79.60;;;;;;5034642;28;20037;-71
2020/12/30 05:57:18;;;;;;;4.95;1.27;;;4.70;80.00;;;;;;5034695;28;20515;-71
2020/12/30 05:59:45;;;;;;;3.10;1.05;;;4.80;80.30;;;;;;5034679;28;20037;-71
2020/12/30 06:02:12;;;;;;;6.82;1.13;;;4.60;80.20;;;;;;5045781;28;20183;-71
2020/12/30 06:04:37;;;;;;;2.75;1.02;;;4.70;80.20;;;;;;5064808;28;20040;-71
2020/12/30 06:07:03;;;;;;;4.43;1.20;;;4.80;80.40;;;;;;5053813;28;20143;-71
2020/12/30 06:09:38;;;;;;;5.20;0.95;;;4.80;80.50;;;;;;5054030;28;20483;-71
2020/12/30 06:12:06;;;;;;;5.07;1.00;;;5.00;80.70;;;;;;5053856;28;20033;-71
2020/12/30 06:14:33;;;;;;;4.82;0.90;;;5.20;80.90;;;;;;5053944;28;20110;-71
2020/12/30 06:17:05;;;;;;;5.78;1.33;;;5.00;80.80;;;;;;5054097;28;20120;-71
2020/12/30 06:19:42;;;;;;;4.97;0.93;;;5.00;80.80;;;;;;5054038;28;20075;-71
2020/12/30 06:22:11;;;;;;;6.50;1.40;;;5.20;81.00;;;;;;5054225;28;20048;-71
2020/12/30 06:24:38;;;;;;;4.35;1.50;;;5.20;81.20;;;;;;5043420;28;20036;-71
2020/12/30 06:27:06;;;;;;;6.63;1.55;;;5.30;81.20;;;;;;5034614;28;20057;-71
2020/12/30 06:29:32;;;;;;;5.70;1.20;;;5.00;81.10;;;;;;5046688;28;20531;-71
2020/12/30 06:31:58;;;;;;;4.88;0.50;;;5.10;81.10;;;;;;5053710;28;20071;-71
2020/12/30 06:34:24;;;;;;;9.30;0.98;;;5.10;81.00;;;;;;5053910;28;20065;-71
2020/12/30 06:37:02;;;;;;;3.28;0.30;;;4.90;81.00;;;;;;5053306;28;20043;-71
2020/12/30 06:39:27;;;;;;;5.40;0.68;;;5.00;81.10;;;;;;5054051;28;20040;-71
2020/12/30 06:42:00;;;;;;;4.65;0.40;;;5.20;81.40;;;;;;5053488;28;20033;-71
2020/12/30 06:44:40;;;;;;;3.50;0.47;;;5.40;81.90;;;;;;5053661;28;20039;-71
2020/12/30 06:47:09;;;;;;;1.77;0.43;;;5.50;82.20;;;;;;5052860;28;20068;-71
2020/12/30 06:49:35;;;;;;;5.03;1.45;;;5.80;82.50;;;;;;5053395;28;20049;-71
2020/12/30 06:52:01;;;;;;;4.63;1.60;;;5.60;82.30;;;;;;5053291;28;20048;-71
2020/12/30 06:54:48;;;;;;;2.63;0.90;;;5.70;82.30;;;;;;5053946;28;20049;-71
2020/12/30 07:00:38;;;;;;;6.95;1.80;;;5.70;81.60;;;;;;5031642;28;20025;-69
2020/12/30 07:03:17;;;;;;;5.30;1.83;;;5.60;81.40;;;;;;5049200;28;20033;-70
2020/12/30 07:05:45;;;;;;;3.60;1.73;;;5.70;81.30;;;;;;5051312;28;20060;-71
2020/12/30 07:08:12;;;;;;;3.13;1.10;;;5.60;81.00;;;;;;5051370;28;20143;-71
2020/12/30 07:10:45;;;;;;;3.88;0.70;;;5.50;80.80;;;;;;5051684;28;20045;-70
2020/12/30 07:13:26;;;;;;;4.97;0.90;;;5.60;80.90;;;;;;5050508;28;20457;-71
2020/12/30 07:16:17;;;;;;;5.20;1.95;;;5.40;80.70;;;;;;5039170;28;20054;-71
2020/12/30 07:18:47;;;;;;;4.97;1.70;;;5.30;80.50;;;;;;5037574;28;20038;-72
2020/12/30 07:21:17;;;;;;;6.65;1.08;;;5.40;80.70;;;;;;5040723;28;20077;-71
2020/12/30 07:23:45;;;;;;;3.22;0.80;;;5.40;80.90;;;;;;5032992;28;20037;-72
2020/12/30 07:26:19;;;;;;;4.25;2.13;;;5.10;80.80;;;;;;5052237;28;20084;-71
2020/12/30 07:28:46;;;;;;;11.98;5.82;;;5.30;80.80;;;;;;5052165;28;20052;-71
2020/12/30 07:31:14;;;;;;;10.50;7.20;;;5.30;80.80;;;;;;5039517;28;20117;-71
2020/12/30 07:33:40;;;;;;;9.35;5.18;;;5.30;80.70;;;;;;5032268;28;20037;-71
2020/12/30 07:36:08;;;;;;;7.40;5.00;;;5.30;80.60;;;;;;5032231;28;20049;-72
2020/12/30 07:38:37;;;;;;;6.15;2.97;;;5.20;81.00;;;;;;5032405;28;20044;-72
2020/12/30 07:41:08;;;;;;;2.95;1.23;;;5.10;80.30;;;;;;5035899;28;20745;-71
2020/12/30 07:43:48;;;;;;;4.18;1.38;;;5.00;80.20;;;;;;5036264;28;20099;-71
2020/12/30 07:46:18;;;;;;;5.25;1.40;;;5.10;80.30;;;;;;5036417;28;20136;-71
2020/12/30 07:48:44;;;;;;;4.60;1.55;;;5.20;80.30;;;;;;5036428;28;20096;-71
2020/12/30 07:51:10;;;;;;;3.60;1.75;;;5.10;80.30;;;;;;5036189;28;20030;-72
2020/12/30 07:53:36;;;;;;;3.97;1.83;;;5.00;80.20;;;;;;5035829;28;20116;-71
2020/12/30 07:56:02;;;;;;;6.43;2.33;;;5.20;80.30;;;;;;5035695;28;20118;-71
2020/12/30 07:58:28;;;;;;;10.07;2.95;;;5.30;80.20;;;;;;5036164;28;20038;-72
2020/12/30 08:00:54;;;;;;;4.97;2.83;;;5.20;80.70;;;;;;5036386;28;20033;-72
2020/12/30 08:03:21;;;;;;;5.38;3.05;;;5.30;80.40;;;;;;5035937;28;20045;-71
2020/12/30 08:06:08;;;;;;;8.13;4.30;;;5.40;80.50;;;;;;5034858;28;20582;-72
2020/12/30 08:08:34;;;;;;;9.30;5.72;;;5.20;80.40;;;;;;5038546;28;20081;-72
2020/12/30 08:10:59;;;;;;;11.05;4.13;;;5.30;80.30;;;;;;5034775;28;20477;-72
2020/12/30 08:13:26;;;;;;;8.68;4.45;;;5.60;80.30;;;;;;5035538;28;20041;-71
2020/12/30 08:15:52;;;;;;;8.77;4.55;;;5.70;80.30;;;;;;5035630;28;20037;-71
2020/12/30 08:18:18;;;;;;;6.88;3.75;;;5.70;80.00;;;;;;5035328;28;20124;-72
2020/12/30 08:20:44;;;;;;;6.32;4.05;;;5.90;79.90;;;;;;5035090;28;20045;-72
2020/12/30 08:23:10;;;;;;;8.15;4.13;;;6.00;79.80;;;;;;5035355;28;20045;-72
2020/12/30 08:25:36;;;;;;;8.57;3.90;;;6.10;79.80;;;;;;5035585;28;20040;-72
2020/12/30 08:28:08;;;;;;;9.05;6.00;;;6.10;79.80;;;;;;5035213;28;20609;-72
2020/12/30 08:30:34;;;;;;;9.55;5.63;;;6.60;80.10;;;;;;5034495;28;20026;-72
2020/12/30 08:33:09;;;;;;;10.95;6.30;;;7.10;80.30;;;;;;5033548;28;20482;-72
2020/12/30 08:35:45;;;;;;;10.02;5.65;;;7.90;80.00;;;;;;5034659;28;20025;-70
2020/12/30 08:38:39;;;;;;;11.70;6.63;;;8.60;79.70;;;;;;5028234;28;20073;-71
2020/12/30 08:44:33;;;;;;;8.27;4.30;;;10.20;76.50;;;;;;5047189;28;20026;-72
2020/12/30 08:47:02;;;;;;;6.18;3.70;;;11.20;74.60;;;;;;5035319;28;20045;-72
2020/12/30 08:49:29;;;;;;;7.22;4.18;;;11.70;73.30;;;;;;5035007;28;20057;-72
2020/12/30 08:55:18;;;;;;;5.55;4.20;;;12.30;70.40;;;;;;5033913;28;20570;-72
2020/12/30 08:57:50;;;;;;;9.07;5.53;;;12.30;69.00;;;;;;5034810;28;20037;-72
2020/12/30 09:00:21;;;;;;;9.90;3.92;;;12.30;68.70;;;;;;5034148;28;20521;-72
2020/12/30 09:02:48;;;;;;;6.57;3.50;;;12.20;68.50;;;;;;5033563;28;20409;-72
2020/12/30 09:05:28;;;;;;;5.68;2.90;;;12.40;68.60;;;;;;5034868;28;20108;-72
2020/12/30 09:07:54;;;;;;;8.15;5.05;;;12.50;67.90;;;;;;5034851;28;20535;-72
2020/12/30 09:10:20;;;;;;;7.50;4.55;;;12.70;67.80;;;;;;5035320;28;20045;-72
2020/12/30 09:12:47;;;;;;;9.45;5.07;;;12.90;67.40;;;;;;5049153;28;20451;-72
2020/12/30 09:15:15;;;;;;;6.22;3.65;;;13.00;67.30;;;;;;5054249;28;20037;-72
2020/12/30 09:17:42;;;;;;;4.22;2.80;;;12.90;67.50;;;;;;5054212;28;20573;-72
2020/12/30 09:20:17;;;;;;;5.80;3.20;;;12.80;67.50;;;;;;5054858;28;20033;-72
2020/12/30 09:22:43;;;;;;;;;;;12.50;67.30;;;;;;5055002;28;20415;-72
2020/12/30 09:25:26;;;;;;;8.95;3.78;;;12.40;68.00;;;;;;5054431;28;19909;-72
2020/12/30 09:27:52;;;;;;;8.75;4.43;;;12.50;67.60;;;;;;5053461;28;20319;-72
2020/12/30 09:30:19;;;;;;;7.18;2.92;;;12.40;67.60;;;;;;5054822;28;20497;-72
2020/12/30 09:32:47;;;;;;;3.08;1.65;;;12.30;68.20;;;;;;5054745;28;20048;-72
2020/12/30 09:35:15;;;;;;;9.07;3.55;;;12.40;68.00;;;;;;5054718;28;20120;-72
2020/12/30 09:37:49;;;;;;;4.82;2.40;;;12.20;68.30;;;;;;5037831;28;20088;-72
2020/12/30 09:40:15;;;;;;;4.20;1.70;;;12.10;68.70;;;;;;5034547;28;20077;-72
2020/12/30 09:42:43;;;;;;;2.53;1.00;;;12.10;68.40;;;;;;5034629;28;20111;-72
2020/12/30 09:45:11;;;;;;;2.50;0.93;;;11.90;68.20;;;;;;5034553;28;20542;-72
2020/12/30 09:47:38;;;;;;;3.28;0.77;;;11.70;68.60;;;;;;5034903;28;20048;-70
2020/12/30 09:50:05;;;;;;;2.33;0.50;;;11.50;68.80;;;;;;5034698;28;20083;-71
2020/12/30 09:52:42;;;;;;;2.88;0.63;;;11.40;69.30;;;;;;5034768;28;20516;-70
2020/12/30 09:55:09;;;;;;;2.13;0.55;;;11.20;69.40;;;;;;5034203;28;20132;-69
2020/12/30 09:57:35;;;;;;;0.90;0.30;;;11.20;70.60;;;;;;5034210;28;20049;-69
2020/12/30 10:00:06;;;;;;;1.08;0.38;;;10.90;70.40;;;;;;5034249;28;20506;-69
2020/12/30 10:02:32;;;;;;;2.15;0.40;;;10.70;70.70;;;;;;5029323;28;20053;-69
2020/12/30 10:04:58;;;;;;;2.60;0.40;;;10.50;71.50;;;;;;5053223;28;20052;-69
2020/12/30 10:07:25;;;;;;;3.92;1.48;;;10.60;72.40;;;;;;5047641;28;20508;-69
2020/12/30 10:09:52;;;;;;;1.67;0.30;;;10.20;71.90;;;;;;5033887;28;20041;-69
2020/12/30 10:12:19;;;;;;;5.95;0.60;;;10.10;72.20;;;;;;5033665;28;20033;-68
2020/12/30 10:14:45;;;;;;;7.70;1.05;;;10.20;72.90;;;;;;5033694;28;20038;-69
2020/12/30 10:17:11;;;;;;;6.32;0.80;;;10.40;73.80;;;;;;5033697;28;20049;-69
2020/12/30 10:19:37;;;;;;;5.70;0.82;;;10.50;74.90;;;;;;5034084;28;20434;-69
2020/12/30 10:22:09;;;;;;;2.47;0.30;;;10.70;75.60;;;;;;5033592;28;20042;-69
2020/12/30 10:24:36;;;;;;;2.28;0.40;;;10.50;75.70;;;;;;5033650;28;20072;-69
2020/12/30 10:27:03;;;;;;;2.80;0.55;;;10.40;75.00;;;;;;5033363;28;20124;-69
2020/12/30 10:29:30;;;;;;;3.40;0.30;;;10.60;74.40;;;;;;5049719;28;20079;-69
2020/12/30 10:32:00;;;;;;;2.65;0.88;;;10.50;74.10;;;;;;5052154;28;20508;-69
2020/12/30 10:34:26;;;;;;;1.67;0.60;;;10.50;73.80;;;;;;5014909;28;20602;-69
2020/12/30 10:36:51;;;;;;;3.78;0.57;;;10.60;73.70;;;;;;5048003;28;20075;-69
2020/12/30 10:39:17;;;;;;;2.70;0.60;;;10.50;73.60;;;;;;5030944;28;20029;-69
2020/12/30 10:41:43;;;;;;;2.38;0.50;;;10.40;73.50;;;;;;5031402;28;20044;-69
2020/12/30 10:44:09;;;;;;;3.47;0.63;;;10.60;73.70;;;;;;5031989;28;20041;-69
2020/12/30 10:46:35;;;;;;;3.40;0.70;;;10.60;74.00;;;;;;5030263;28;20532;-69
2020/12/30 10:49:01;;;;;;;3.42;0.63;;;10.70;74.00;;;;;;5031828;28;20037;-69
2020/12/30 10:51:27;;;;;;;2.63;0.40;;;11.00;74.30;;;;;;5049051;28;20144;-69
2020/12/30 10:53:53;;;;;;;3.90;0.40;;;10.90;74.10;;;;;;5035852;28;20520;-69
2020/12/30 10:56:18;;;;;;;4.90;0.93;;;11.00;74.00;;;;;;5048091;28;20043;-68
2020/12/30 10:58:44;;;;;;;6.57;1.30;;;10.90;73.90;;;;;;5033694;28;20047;-69
2020/12/30 11:01:14;;;;;;;5.40;1.23;;;10.90;73.80;;;;;;5032157;28;20041;-69
2020/12/30 11:03:41;;;;;;;6.72;2.75;;;10.90;73.70;;;;;;5015880;28;20080;-69
2020/12/30 11:06:07;;;;;;;5.13;1.35;;;10.90;73.70;;;;;;5039031;28;20041;-69
2020/12/30 11:08:34;;;;;;;4.68;1.20;;;10.90;73.70;;;;;;5031324;28;20045;-69
2020/12/30 11:11:01;;;;;;;3.70;0.98;;;10.70;73.70;;;;;;5031868;28;20076;-69
2020/12/30 11:13:28;;;;;;;6.07;1.30;;;10.60;73.90;;;;;;5032006;28;20069;-69
2020/12/30 11:15:54;;;;;;;6.55;1.20;;;10.70;74.20;;;;;;5034427;28;20073;-69
2020/12/30 11:18:20;;;;;;;10.70;3.85;;;10.70;74.30;;;;;;5035233;28;20516;-69
2020/12/30 11:20:47;;;;;;;5.32;1.55;;;10.80;74.70;;;;;;5035485;28;20044;-69
2020/12/30 11:23:13;;;;;;;5.53;1.00;;;11.10;75.10;;;;;;5035238;28;20041;-69
2020/12/30 11:25:41;;;;;;;5.90;0.90;;;11.30;75.30;;;;;;5035332;28;20059;-69
2020/12/30 11:28:08;;;;;;;5.45;0.80;;;11.50;75.40;;;;;;5007799;28;798951;-70
2020/12/30 11:30:34;;;;;;;4.15;0.75;;;11.80;75.60;;;;;;5036516;28;20092;-69
2020/12/30 11:33:00;;;;;;;4.00;0.80;;;11.90;75.20;;;;;;5044794;28;20056;-70
2020/12/30 11:35:26;;;;;;;4.70;0.90;;;12.00;75.40;;;;;;5053015;28;20045;-69
2020/12/30 11:37:52;;;;;;;3.58;0.80;;;12.00;74.30;;;;;;5053916;28;20044;-69
2020/12/30 11:40:18;;;;;;;4.78;0.55;;;12.00;73.70;;;;;;5054378;28;20040;-69
2020/12/30 11:42:44;;;;;;;3.60;0.63;;;12.10;73.40;;;;;;5053585;28;20045;-69
2020/12/30 11:45:10;;;;;;;4.25;0.80;;;12.10;73.20;;;;;;5054812;28;20076;-69
2020/12/30 11:47:36;;;;;;;3.78;0.77;;;12.00;72.90;;;;;;5054779;28;20057;-70
2020/12/30 11:50:03;;;;;;;4.20;0.80;;;11.90;72.50;;;;;;5056520;28;20094;-70
2020/12/30 11:52:29;;;;;;;3.90;0.77;;;11.90;72.50;;;;;;5056554;28;20044;-70
2020/12/30 11:54:55;;;;;;;7.18;0.88;;;11.90;72.50;;;;;;5055822;28;20052;-69
2020/12/30 11:57:21;;;;;;;6.60;0.85;;;12.10;72.50;;;;;;5056272;28;20053;-69
2020/12/30 11:59:46;;;;;;;4.72;0.90;;;12.20;72.50;;;;;;5056389;28;20041;-70
2020/12/30 12:02:12;;;;;;;5.38;0.90;;;12.20;72.20;;;;;;5056066;28;20063;-70
2020/12/30 12:04:38;;;;;;;7.28;0.70;;;12.30;72.00;;;;;;5055232;28;20029;-70
2020/12/30 12:07:04;;;;;;;4.82;0.70;;;12.30;71.70;;;;;;5056318;28;20492;-70
2020/12/30 12:09:33;;;;;;;6.88;0.70;;;12.50;71.70;;;;;;5055468;28;20554;-70
2020/12/30 12:12:01;;;;;;;6.45;0.50;;;12.50;71.20;;;;;;5055481;28;20597;-70
2020/12/30 12:14:27;;;;;;;6.47;0.50;;;12.50;71.10;;;;;;5056099;28;20041;-69
2020/12/30 12:16:58;;;;;;;5.78;0.50;;;12.50;71.10;;;;;;5056204;28;20056;-70
2020/12/30 12:19:25;;;;;;;5.30;0.50;;;13.40;71.30;;;;;;5055708;28;20052;-70
2020/12/30 12:21:51;;;;;;;6.20;0.50;;;12.40;70.50;;;;;;5055665;28;20090;-69
2020/12/30 12:24:17;;;;;;;2.90;0.57;;;12.50;70.60;;;;;;5048960;28;20047;-70
2020/12/30 12:26:43;;;;;;;4.50;0.52;;;12.50;70.50;;;;;;5047991;28;20049;-69
2020/12/30 12:29:36;;;;;;;5.15;0.80;;;12.60;70.50;;;;;;5053086;28;20057;-68
2020/12/30 12:32:02;;;;;;;5.03;0.60;;;12.50;70.40;;;;;;5038208;28;20041;-69
2020/12/30 12:34:28;;;;;;;5.07;0.82;;;12.50;70.20;;;;;;5038912;28;20047;-70
2020/12/30 12:36:53;;;;;;;4.70;0.80;;;12.40;70.20;;;;;;5035050;28;20043;-69
2020/12/30 12:39:19;;;;;;;4.40;0.60;;;12.40;70.10;;;;;;5034790;28;20076;-70
2020/12/30 12:41:45;;;;;;;3.55;0.52;;;12.40;70.60;;;;;;5035283;28;20580;-69
2020/12/30 12:44:11;;;;;;;4.45;0.50;;;12.40;70.00;;;;;;5035269;28;20044;-70
2020/12/30 12:46:36;;;;;;;4.45;0.40;;;12.30;69.80;;;;;;5035440;28;20623;-69
2020/12/30 12:49:02;;;;;;;4.75;0.57;;;12.40;69.70;;;;;;5035281;28;20128;-70
2020/12/30 12:51:28;;;;;;;6.68;0.60;;;12.50;69.70;;;;;;5035298;28;20042;-69
2020/12/30 12:53:57;;;;;;;2.28;0.45;;;12.50;69.60;;;;;;5035192;28;20046;-70
2020/12/30 12:56:23;;;;;;;6.32;0.80;;;12.40;69.50;;;;;;5035349;28;20416;-69
2020/12/30 12:58:49;;;;;;;6.55;0.80;;;12.50;69.40;;;;;;5034949;28;20041;-69
2020/12/30 13:01:16;;;;;;;5.43;0.57;;;12.50;69.20;;;;;;5034851;28;20052;-69
2020/12/30 13:03:42;;;;;;;4.25;1.15;;;12.40;69.10;;;;;;5035055;28;20069;-69
2020/12/30 13:06:07;;;;;;;9.98;3.75;;;12.50;69.10;;;;;;5035053;28;20430;-69